FelLS Point — WDH5561 — position and weather

sailwx.info

Track history (hours):
 
Tides and Currents Weather Stations Pressure Air Temp Water Temp Dewpoint Dewpoint Depression Visibility Wind Speed Wind Dir Waves Ship Positions

FelLS Point

Owner: Vane Line Bunkering, Inc., Philadelphia, PA. More information available from US FCC via Universal Licensing System.

Last reported at 2017-Dec-09 13:16 UTC. Time now 2017-Dec-12 12:39 UTC.
Position N 40°58' W 073°54'.

Length 33 m; draft 4 m.

Type: Tug. MMSI: 303461000.

Date/timePositionNaut miles runAvg speedWind from/ knotsBaromVisibWave heightAir tempDewpointWater temp
2017-Dec-09 13:16N 40°58' W 073°54'2 5.8
2017-Dec-09 12:59N 40°57' W 073°54'3 5.9
2017-Dec-09 12:29N 40°54' W 073°55'3 5.7
2017-Dec-09 11:59N 40°51' W 073°57'3 5.5
2017-Dec-09 11:30N 40°49' W 073°58'3 5.5
2017-Dec-09 11:00N 40°46' W 073°60'3 6.0
2017-Dec-09 10:30N 40°44' W 074°01'3 6.4
2017-Dec-09 10:00N 40°41' W 074°03'4 7.6
2017-Dec-09 09:29N 40°39' W 074°07'3 7.1
2017-Dec-09 09:00N 40°38' W 074°12'3 5.8
2017-Dec-09 08:30N 40°35' W 074°12'0 0.6
2017-Dec-09 08:00N 40°35' W 074°13'0 0.0
2017-Dec-09 07:30N 40°35' W 074°13'0 0.0
2017-Dec-09 07:00N 40°35' W 074°13'0 0.0
2017-Dec-09 06:30N 40°35' W 074°13'0 0.0
2017-Dec-09 06:00N 40°35' W 074°13'0 0.0
2017-Dec-09 05:30N 40°35' W 074°13'0 0.0
2017-Dec-09 04:59N 40°35' W 074°13'0 0.0
2017-Dec-09 04:30N 40°35' W 074°13'0 0.0
2017-Dec-09 04:00N 40°35' W 074°13'0 0.0
2017-Dec-09 03:30N 40°35' W 074°13'0 0.0
2017-Dec-09 03:00N 40°35' W 074°13'0 0.0
2017-Dec-09 02:29N 40°35' W 074°13'0 0.0
2017-Dec-09 01:59N 40°35' W 074°13'0 0.0
2017-Dec-09 01:30N 40°35' W 074°13'0 0.0
2017-Dec-09 01:00N 40°35' W 074°13'0 0.0
2017-Dec-09 00:29N 40°35' W 074°13'0 0.0
2017-Dec-09 00:00N 40°35' W 074°13'0 0.0
2017-Dec-08 23:30N 40°35' W 074°13'0 0.0
2017-Dec-08 22:59N 40°35' W 074°13'0 0.0
2017-Dec-08 22:30N 40°35' W 074°13'0 0.0
2017-Dec-08 22:00N 40°35' W 074°13'0 0.0
2017-Dec-08 21:30N 40°35' W 074°13'0 0.0
2017-Dec-08 21:00N 40°35' W 074°13'0 0.0
2017-Dec-08 20:30N 40°35' W 074°13'0 0.0
2017-Dec-08 20:00N 40°35' W 074°13'0 0.0
2017-Dec-08 19:30N 40°35' W 074°13'0 0.0
2017-Dec-08 19:00N 40°35' W 074°13'1 2.4
2017-Dec-08 18:27N 40°34' W 074°13'1 0.2
2017-Dec-08 12:05N 40°33' W 074°14'0 2.4
2017-Dec-08 12:00N 40°34' W 074°14'0 0.0
2017-Dec-08 11:29N 40°34' W 074°14'0 0.0
2017-Dec-08 10:15N 40°34' W 074°14'0 0.0
2017-Dec-08 10:00N 40°34' W 074°14'0 0.0
2017-Dec-08 09:27N 40°34' W 074°14'0 0.0
2017-Dec-08 09:00N 40°34' W 074°14'0 0.0
2017-Dec-08 07:59N 40°34' W 074°14'0 0.0
2017-Dec-08 07:30N 40°34' W 074°14'1 2.3
2017-Dec-08 07:00N 40°34' W 074°13'4 8.7
2017-Dec-08 06:30N 40°38' W 074°12'4 7.9
2017-Dec-08 06:00N 40°39' W 074°07'4 8.0
2017-Dec-08 05:30N 40°39' W 074°02'1 2.8
2017-Dec-08 05:00N 40°40' W 074°00'0 0.0
2017-Dec-08 04:30N 40°40' W 074°00'0 0.0
2017-Dec-08 04:00N 40°40' W 074°00'0 0.0
2017-Dec-08 03:30N 40°40' W 074°00'0 0.0
2017-Dec-08 03:00N 40°40' W 074°00'0 0.0
2017-Dec-08 02:30N 40°40' W 074°00'0 0.0
2017-Dec-08 02:00N 40°40' W 074°00'0 0.0
2017-Dec-08 01:30N 40°40' W 074°00'0 0.0
2017-Dec-08 01:00N 40°40' W 074°00'0 0.0
2017-Dec-08 00:31N 40°40' W 074°00'4 8.1
2017-Dec-08 00:00N 40°39' W 074°05'5 9.1
2017-Dec-07 23:30N 40°39' W 074°11'4 8.7
2017-Dec-07 22:59N 40°34' W 074°13'2 2.8
2017-Dec-07 22:17N 40°33' W 074°15'1 0.0
2017-Dec-07 04:24N 40°32' W 074°15'1 1.6
2017-Dec-07 04:00N 40°33' W 074°15'3 6.7
2017-Dec-07 03:30N 40°36' W 074°12'3 6.8
2017-Dec-07 03:00N 40°39' W 074°11'4 8.8
2017-Dec-07 02:30N 40°39' W 074°05'3 7.0
2017-Dec-07 02:01N 40°42' W 074°02'4 7.0
2017-Dec-07 01:30N 40°45' W 074°01'4 7.6
2017-Dec-07 01:00N 40°48' W 073°58'4 8.4
2017-Dec-07 00:30N 40°52' W 073°56'4 8.4
2017-Dec-07 00:00N 40°56' W 073°54'  
2017-Dec-04 01:46N 40°59' W 073°54'310.1
2017-Dec-04 01:30N 40°56' W 073°55'510.1
2017-Dec-04 01:00N 40°51' W 073°57'510.3
2017-Dec-04 00:30N 40°47' W 073°60'5 9.5
2017-Dec-04 00:00N 40°42' W 074°02'4 8.0
2017-Dec-03 23:30N 40°39' W 074°05'3 6.6
2017-Dec-03 23:00N 40°39' W 074°09'3 6.1
2017-Dec-03 22:30N 40°37' W 074°12'1 1.2
2017-Dec-03 22:00N 40°36' W 074°12'0 0.0
2017-Dec-03 21:29N 40°36' W 074°12'0 0.0
2017-Dec-03 21:00N 40°36' W 074°12'3 5.6
2017-Dec-03 20:30N 40°39' W 074°11'510.5
2017-Dec-03 20:00N 40°39' W 074°04'3 6.3
2017-Dec-03 19:30N 40°40' W 074°00'0 0.0
2017-Dec-03 19:00N 40°40' W 074°00'0 0.0
2017-Dec-03 18:30N 40°40' W 074°00'0 0.0
2017-Dec-03 18:00N 40°40' W 074°00'0 0.0
2017-Dec-03 17:30N 40°40' W 074°00'0 0.0
2017-Dec-03 17:00N 40°40' W 074°00'0 0.0
2017-Dec-03 16:30N 40°40' W 074°00'0 0.0
2017-Dec-03 16:01N 40°40' W 074°00'0 0.0
2017-Dec-03 15:30N 40°40' W 074°00'0 0.1
2017-Dec-03 15:01N 40°40' W 074°00'0 0.1
2017-Dec-03 14:30N 40°40' W 074°00'0 0.0
2017-Dec-03 14:00N 40°40' W 074°00'0 0.0
2017-Dec-03 13:30N 40°40' W 074°00'0 0.0
2017-Dec-03 13:00N 40°40' W 074°00'0 0.2
2017-Dec-03 12:30N 40°40' W 074°00'5 9.1
2017-Dec-03 12:00N 40°39' W 074°06'4 9.0
2017-Dec-03 11:30N 40°38' W 074°12'2 4.2
2017-Dec-03 11:00N 40°36' W 074°12'3 5.9
2017-Dec-03 10:30N 40°39' W 074°11'5 9.5
2017-Dec-03 10:00N 40°39' W 074°05'1 1.7
2017-Dec-03 09:30N 40°40' W 074°04'1 2.2
2017-Dec-03 09:00N 40°40' W 074°03'4 7.8
2017-Dec-03 08:30N 40°43' W 073°59'2 4.7
2017-Dec-03 08:00N 40°44' W 073°57'0 0.6
2017-Dec-03 07:30N 40°44' W 073°56'0 0.1
2017-Dec-03 07:00N 40°44' W 073°57'0 0.0
2017-Dec-03 06:30N 40°44' W 073°57'0 0.0
2017-Dec-03 06:00N 40°44' W 073°57'0 0.0
2017-Dec-03 05:30N 40°44' W 073°57'0 0.0
2017-Dec-03 05:00N 40°44' W 073°57'0 0.0
2017-Dec-03 04:30N 40°44' W 073°57'0 0.0
2017-Dec-03 03:59N 40°44' W 073°57'0 0.0
2017-Dec-03 03:30N 40°44' W 073°57'0 0.0
2017-Dec-03 03:00N 40°44' W 073°57'0 0.0
2017-Dec-03 02:30N 40°44' W 073°57'0 0.0
2017-Dec-03 02:00N 40°44' W 073°57'0 0.0
2017-Dec-03 01:30N 40°44' W 073°57'0 0.0
2017-Dec-03 00:59N 40°44' W 073°57'0 0.0
2017-Dec-03 00:30N 40°44' W 073°57'0 0.0
2017-Dec-03 00:00N 40°44' W 073°57'0 0.0
2017-Dec-02 23:30N 40°44' W 073°57'0 0.0
2017-Dec-02 23:00N 40°44' W 073°57'0 0.0
2017-Dec-02 22:30N 40°44' W 073°57'0 0.0
2017-Dec-02 22:00N 40°44' W 073°57'0 0.3
2017-Dec-02 21:30N 40°44' W 073°57'2 4.0
2017-Dec-02 21:00N 40°43' W 073°58'4 8.4
2017-Dec-02 20:30N 40°40' W 074°03'3 7.0
2017-Dec-02 20:00N 40°39' W 074°07'4 7.1
2017-Dec-02 19:30N 40°38' W 074°12'3 5.6
2017-Dec-02 19:00N 40°36' W 074°12'3 6.4
2017-Dec-02 18:29N 40°33' W 074°15'0 0.2
2017-Dec-02 16:34N 40°33' W 074°15'0 0.0
2017-Dec-02 16:11N 40°33' W 074°15'0 0.0
2017-Dec-02 15:43N 40°33' W 074°15'0 0.0
2017-Dec-02 15:26N 40°33' W 074°15'0 0.0
2017-Dec-02 13:16N 40°33' W 074°15'0 0.0
2017-Dec-02 12:58N 40°33' W 074°15'0 0.0
2017-Dec-02 12:29N 40°33' W 074°15'0 0.0
2017-Dec-02 11:57N 40°33' W 074°15'0 0.0
2017-Dec-02 11:28N 40°33' W 074°15'0 0.0
2017-Dec-02 10:59N 40°33' W 074°15'0 0.0
2017-Dec-02 10:27N 40°33' W 074°15'0 0.0
2017-Dec-02 09:55N 40°33' W 074°15'0 0.0
2017-Dec-02 09:30N 40°33' W 074°15'0 0.0
2017-Dec-02 08:59N 40°33' W 074°15'0 0.0
2017-Dec-02 08:30N 40°33' W 074°15'0 0.0
2017-Dec-02 08:00N 40°33' W 074°15'0 0.0
2017-Dec-02 07:30N 40°33' W 074°15'0 0.2
2017-Dec-02 07:00N 40°33' W 074°15'1 1.8
2017-Dec-02 06:30N 40°33' W 074°15'0 0.4
2017-Dec-02 06:00N 40°32' W 074°15'0 0.0
2017-Dec-02 05:29N 40°32' W 074°15'0 0.0
2017-Dec-02 05:00N 40°32' W 074°15'3 5.4
2017-Dec-02 04:29N 40°34' W 074°13'5 9.6
2017-Dec-02 04:00N 40°39' W 074°11'5 9.5
2017-Dec-02 03:30N 40°39' W 074°05'4 7.4
2017-Dec-02 03:00N 40°40' W 074°00'0 0.0
2017-Dec-02 02:30N 40°40' W 074°00'0 0.0
2017-Dec-02 02:00N 40°40' W 074°00'0 0.0
2017-Dec-02 01:30N 40°40' W 074°00'0 0.0
2017-Dec-02 01:00N 40°40' W 074°00'0 0.0
2017-Dec-02 00:30N 40°40' W 074°00'0 0.0
2017-Dec-02 00:00N 40°40' W 074°00'0 0.0
2017-Dec-01 23:30N 40°40' W 074°00'2 3.9
2017-Dec-01 23:01N 40°39' W 074°02'510.1
2017-Dec-01 22:29N 40°39' W 074°09'3 5.5
2017-Dec-01 22:00N 40°37' W 074°12'4 7.7
2017-Dec-01 21:28N 40°33' W 074°14'1 0.8
2017-Dec-01 20:34N 40°33' W 074°15'1 3.9
2017-Dec-01 20:21N 40°32' W 074°15'1 0.9
2017-Dec-01 19:45N 40°33' W 074°15'1 4.8
2017-Dec-01 19:30N 40°33' W 074°14'3 6.0
2017-Dec-01 18:58N 40°37' W 074°12'3 6.6
2017-Dec-01 18:30N 40°39' W 074°10'4 8.5
2017-Dec-01 18:00N 40°40' W 074°04'1 1.1
2017-Dec-01 17:30N 40°40' W 074°04'0 0.0
2017-Dec-01 17:00N 40°40' W 074°04'0 0.0
2017-Dec-01 16:30N 40°40' W 074°04'0 0.0
2017-Dec-01 16:00N 40°40' W 074°04'0 0.0
2017-Dec-01 15:30N 40°40' W 074°04'0 0.0
2017-Dec-01 15:00N 40°40' W 074°04'0 0.0
2017-Dec-01 14:30N 40°40' W 074°04'0 0.0
2017-Dec-01 14:00N 40°40' W 074°04'0 0.0
2017-Dec-01 13:30N 40°40' W 074°04'0 0.0
2017-Dec-01 13:00N 40°40' W 074°04'0 0.0
2017-Dec-01 12:30N 40°40' W 074°04'0 0.0
2017-Dec-01 12:00N 40°40' W 074°04'0 0.0
2017-Dec-01 11:30N 40°40' W 074°04'0 0.0
2017-Dec-01 11:00N 40°40' W 074°04'0 0.0
2017-Dec-01 10:30N 40°40' W 074°04'0 0.0
2017-Dec-01 10:00N 40°40' W 074°04'0 0.0
2017-Dec-01 09:30N 40°40' W 074°04'0 0.0
2017-Dec-01 09:00N 40°40' W 074°04'0 0.0
2017-Dec-01 08:30N 40°40' W 074°04'0 0.0
2017-Dec-01 08:00N 40°40' W 074°04'0 0.0
2017-Dec-01 07:30N 40°40' W 074°04'0 0.0
2017-Dec-01 07:00N 40°40' W 074°04'0 0.0
2017-Dec-01 06:30N 40°40' W 074°04'0 0.0
2017-Dec-01 06:00N 40°40' W 074°04'0 0.0
2017-Dec-01 05:30N 40°40' W 074°04'0 0.0
2017-Dec-01 05:00N 40°40' W 074°04'0 0.0
2017-Dec-01 04:30N 40°40' W 074°04'0 0.0
2017-Dec-01 04:00N 40°40' W 074°04'0 0.1
2017-Dec-01 03:30N 40°40' W 074°04'3 6.3
2017-Dec-01 03:00N 40°42' W 074°02'510.2
2017-Dec-01 02:30N 40°47' W 073°59'5 9.6
2017-Dec-01 02:00N 40°52' W 073°57'5 8.4
2017-Dec-01 01:26N 40°56' W 073°55'  
Track history (hours):
 
Tides and Currents Weather Stations Pressure Air Temp Water Temp Dewpoint Dewpoint Depression Visibility Wind Speed Wind Dir Waves Ship Positions

FelLS Point

Owner: Vane Line Bunkering, Inc., Philadelphia, PA. More information available from US FCC via Universal Licensing System.

Last reported at 2017-Dec-09 13:16 UTC. Time now 2017-Dec-12 12:39 UTC.
Position N 40°58' W 073°54'.

Length 33 m; draft 4 m.

Type: Tug. MMSI: 303461000.

Date/timePositionNaut miles runAvg speedWind from/ knotsBaromVisibWave heightAir tempDewpointWater temp
2017-Dec-09 13:16N 40°58' W 073°54'2 5.8
2017-Dec-09 12:59N 40°57' W 073°54'3 5.9
2017-Dec-09 12:29N 40°54' W 073°55'3 5.7
2017-Dec-09 11:59N 40°51' W 073°57'3 5.5
2017-Dec-09 11:30N 40°49' W 073°58'3 5.5
2017-Dec-09 11:00N 40°46' W 073°60'3 6.0
2017-Dec-09 10:30N 40°44' W 074°01'3 6.4
2017-Dec-09 10:00N 40°41' W 074°03'4 7.6
2017-Dec-09 09:29N 40°39' W 074°07'3 7.1
2017-Dec-09 09:00N 40°38' W 074°12'3 5.8
2017-Dec-09 08:30N 40°35' W 074°12'0 0.6
2017-Dec-09 08:00N 40°35' W 074°13'0 0.0
2017-Dec-09 07:30N 40°35' W 074°13'0 0.0
2017-Dec-09 07:00N 40°35' W 074°13'0 0.0
2017-Dec-09 06:30N 40°35' W 074°13'0 0.0
2017-Dec-09 06:00N 40°35' W 074°13'0 0.0
2017-Dec-09 05:30N 40°35' W 074°13'0 0.0
2017-Dec-09 04:59N 40°35' W 074°13'0 0.0
2017-Dec-09 04:30N 40°35' W 074°13'0 0.0
2017-Dec-09 04:00N 40°35' W 074°13'0 0.0
2017-Dec-09 03:30N 40°35' W 074°13'0 0.0
2017-Dec-09 03:00N 40°35' W 074°13'0 0.0
2017-Dec-09 02:29N 40°35' W 074°13'0 0.0
2017-Dec-09 01:59N 40°35' W 074°13'0 0.0
2017-Dec-09 01:30N 40°35' W 074°13'0 0.0
2017-Dec-09 01:00N 40°35' W 074°13'0 0.0
2017-Dec-09 00:29N 40°35' W 074°13'0 0.0
2017-Dec-09 00:00N 40°35' W 074°13'0 0.0
2017-Dec-08 23:30N 40°35' W 074°13'0 0.0
2017-Dec-08 22:59N 40°35' W 074°13'0 0.0
2017-Dec-08 22:30N 40°35' W 074°13'0 0.0
2017-Dec-08 22:00N 40°35' W 074°13'0 0.0
2017-Dec-08 21:30N 40°35' W 074°13'0 0.0
2017-Dec-08 21:00N 40°35' W 074°13'0 0.0
2017-Dec-08 20:30N 40°35' W 074°13'0 0.0
2017-Dec-08 20:00N 40°35' W 074°13'0 0.0
2017-Dec-08 19:30N 40°35' W 074°13'0 0.0
2017-Dec-08 19:00N 40°35' W 074°13'1 2.4
2017-Dec-08 18:27N 40°34' W 074°13'1 0.2
2017-Dec-08 12:05N 40°33' W 074°14'0 2.4
2017-Dec-08 12:00N 40°34' W 074°14'0 0.0
2017-Dec-08 11:29N 40°34' W 074°14'0 0.0
2017-Dec-08 10:15N 40°34' W 074°14'0 0.0
2017-Dec-08 10:00N 40°34' W 074°14'0 0.0
2017-Dec-08 09:27N 40°34' W 074°14'0 0.0
2017-Dec-08 09:00N 40°34' W 074°14'0 0.0
2017-Dec-08 07:59N 40°34' W 074°14'0 0.0
2017-Dec-08 07:30N 40°34' W 074°14'1 2.3
2017-Dec-08 07:00N 40°34' W 074°13'4 8.7
2017-Dec-08 06:30N 40°38' W 074°12'4 7.9
2017-Dec-08 06:00N 40°39' W 074°07'4 8.0
2017-Dec-08 05:30N 40°39' W 074°02'1 2.8
2017-Dec-08 05:00N 40°40' W 074°00'0 0.0
2017-Dec-08 04:30N 40°40' W 074°00'0 0.0
2017-Dec-08 04:00N 40°40' W 074°00'0 0.0
2017-Dec-08 03:30N 40°40' W 074°00'0 0.0
2017-Dec-08 03:00N 40°40' W 074°00'0 0.0
2017-Dec-08 02:30N 40°40' W 074°00'0 0.0
2017-Dec-08 02:00N 40°40' W 074°00'0 0.0
2017-Dec-08 01:30N 40°40' W 074°00'0 0.0
2017-Dec-08 01:00N 40°40' W 074°00'0 0.0
2017-Dec-08 00:31N 40°40' W 074°00'4 8.1
2017-Dec-08 00:00N 40°39' W 074°05'5 9.1
2017-Dec-07 23:30N 40°39' W 074°11'4 8.7
2017-Dec-07 22:59N 40°34' W 074°13'2 2.8
2017-Dec-07 22:17N 40°33' W 074°15'1 0.0
2017-Dec-07 04:24N 40°32' W 074°15'1 1.6
2017-Dec-07 04:00N 40°33' W 074°15'3 6.7
2017-Dec-07 03:30N 40°36' W 074°12'3 6.8
2017-Dec-07 03:00N 40°39' W 074°11'4 8.8
2017-Dec-07 02:30N 40°39' W 074°05'3 7.0
2017-Dec-07 02:01N 40°42' W 074°02'4 7.0
2017-Dec-07 01:30N 40°45' W 074°01'4 7.6
2017-Dec-07 01:00N 40°48' W 073°58'4 8.4
2017-Dec-07 00:30N 40°52' W 073°56'4 8.4
2017-Dec-07 00:00N 40°56' W 073°54'  
2017-Dec-04 01:46N 40°59' W 073°54'310.1
2017-Dec-04 01:30N 40°56' W 073°55'510.1
2017-Dec-04 01:00N 40°51' W 073°57'510.3
2017-Dec-04 00:30N 40°47' W 073°60'5 9.5
2017-Dec-04 00:00N 40°42' W 074°02'4 8.0
2017-Dec-03 23:30N 40°39' W 074°05'3 6.6
2017-Dec-03 23:00N 40°39' W 074°09'3 6.1
2017-Dec-03 22:30N 40°37' W 074°12'1 1.2
2017-Dec-03 22:00N 40°36' W 074°12'0 0.0
2017-Dec-03 21:29N 40°36' W 074°12'0 0.0
2017-Dec-03 21:00N 40°36' W 074°12'3 5.6
2017-Dec-03 20:30N 40°39' W 074°11'510.5
2017-Dec-03 20:00N 40°39' W 074°04'3 6.3
2017-Dec-03 19:30N 40°40' W 074°00'0 0.0
2017-Dec-03 19:00N 40°40' W 074°00'0 0.0
2017-Dec-03 18:30N 40°40' W 074°00'0 0.0
2017-Dec-03 18:00N 40°40' W 074°00'0 0.0
2017-Dec-03 17:30N 40°40' W 074°00'0 0.0
2017-Dec-03 17:00N 40°40' W 074°00'0 0.0
2017-Dec-03 16:30N 40°40' W 074°00'0 0.0
2017-Dec-03 16:01N 40°40' W 074°00'0 0.0
2017-Dec-03 15:30N 40°40' W 074°00'0 0.1
2017-Dec-03 15:01N 40°40' W 074°00'0 0.1
2017-Dec-03 14:30N 40°40' W 074°00'0 0.0
2017-Dec-03 14:00N 40°40' W 074°00'0 0.0
2017-Dec-03 13:30N 40°40' W 074°00'0 0.0
2017-Dec-03 13:00N 40°40' W 074°00'0 0.2
2017-Dec-03 12:30N 40°40' W 074°00'5 9.1
2017-Dec-03 12:00N 40°39' W 074°06'4 9.0
2017-Dec-03 11:30N 40°38' W 074°12'2 4.2
2017-Dec-03 11:00N 40°36' W 074°12'3 5.9
2017-Dec-03 10:30N 40°39' W 074°11'5 9.5
2017-Dec-03 10:00N 40°39' W 074°05'1 1.7
2017-Dec-03 09:30N 40°40' W 074°04'1 2.2
2017-Dec-03 09:00N 40°40' W 074°03'4 7.8
2017-Dec-03 08:30N 40°43' W 073°59'2 4.7
2017-Dec-03 08:00N 40°44' W 073°57'0 0.6
2017-Dec-03 07:30N 40°44' W 073°56'0 0.1
2017-Dec-03 07:00N 40°44' W 073°57'0 0.0
2017-Dec-03 06:30N 40°44' W 073°57'0 0.0
2017-Dec-03 06:00N 40°44' W 073°57'0 0.0
2017-Dec-03 05:30N 40°44' W 073°57'0 0.0
2017-Dec-03 05:00N 40°44' W 073°57'0 0.0
2017-Dec-03 04:30N 40°44' W 073°57'0 0.0
2017-Dec-03 03:59N 40°44' W 073°57'0 0.0
2017-Dec-03 03:30N 40°44' W 073°57'0 0.0
2017-Dec-03 03:00N 40°44' W 073°57'0 0.0
2017-Dec-03 02:30N 40°44' W 073°57'0 0.0
2017-Dec-03 02:00N 40°44' W 073°57'0 0.0
2017-Dec-03 01:30N 40°44' W 073°57'0 0.0
2017-Dec-03 00:59N 40°44' W 073°57'0 0.0
2017-Dec-03 00:30N 40°44' W 073°57'0 0.0
2017-Dec-03 00:00N 40°44' W 073°57'0 0.0
2017-Dec-02 23:30N 40°44' W 073°57'0 0.0
2017-Dec-02 23:00N 40°44' W 073°57'0 0.0
2017-Dec-02 22:30N 40°44' W 073°57'0 0.0
2017-Dec-02 22:00N 40°44' W 073°57'0 0.3
2017-Dec-02 21:30N 40°44' W 073°57'2 4.0
2017-Dec-02 21:00N 40°43' W 073°58'4 8.4
2017-Dec-02 20:30N 40°40' W 074°03'3 7.0
2017-Dec-02 20:00N 40°39' W 074°07'4 7.1
2017-Dec-02 19:30N 40°38' W 074°12'3 5.6
2017-Dec-02 19:00N 40°36' W 074°12'3 6.4
2017-Dec-02 18:29N 40°33' W 074°15'0 0.2
2017-Dec-02 16:34N 40°33' W 074°15'0 0.0
2017-Dec-02 16:11N 40°33' W 074°15'0 0.0
2017-Dec-02 15:43N 40°33' W 074°15'0 0.0
2017-Dec-02 15:26N 40°33' W 074°15'0 0.0
2017-Dec-02 13:16N 40°33' W 074°15'0 0.0
2017-Dec-02 12:58N 40°33' W 074°15'0 0.0
2017-Dec-02 12:29N 40°33' W 074°15'0 0.0
2017-Dec-02 11:57N 40°33' W 074°15'0 0.0
2017-Dec-02 11:28N 40°33' W 074°15'0 0.0
2017-Dec-02 10:59N 40°33' W 074°15'0 0.0
2017-Dec-02 10:27N 40°33' W 074°15'0 0.0
2017-Dec-02 09:55N 40°33' W 074°15'0 0.0
2017-Dec-02 09:30N 40°33' W 074°15'0 0.0
2017-Dec-02 08:59N 40°33' W 074°15'0 0.0
2017-Dec-02 08:30N 40°33' W 074°15'0 0.0
2017-Dec-02 08:00N 40°33' W 074°15'0 0.0
2017-Dec-02 07:30N 40°33' W 074°15'0 0.2
2017-Dec-02 07:00N 40°33' W 074°15'1 1.8
2017-Dec-02 06:30N 40°33' W 074°15'0 0.4
2017-Dec-02 06:00N 40°32' W 074°15'0 0.0
2017-Dec-02 05:29N 40°32' W 074°15'0 0.0
2017-Dec-02 05:00N 40°32' W 074°15'3 5.4
2017-Dec-02 04:29N 40°34' W 074°13'5 9.6
2017-Dec-02 04:00N 40°39' W 074°11'5 9.5
2017-Dec-02 03:30N 40°39' W 074°05'4 7.4
2017-Dec-02 03:00N 40°40' W 074°00'0 0.0
2017-Dec-02 02:30N 40°40' W 074°00'0 0.0
2017-Dec-02 02:00N 40°40' W 074°00'0 0.0
2017-Dec-02 01:30N 40°40' W 074°00'0 0.0
2017-Dec-02 01:00N 40°40' W 074°00'0 0.0
2017-Dec-02 00:30N 40°40' W 074°00'0 0.0
2017-Dec-02 00:00N 40°40' W 074°00'0 0.0
2017-Dec-01 23:30N 40°40' W 074°00'2 3.9
2017-Dec-01 23:01N 40°39' W 074°02'510.1
2017-Dec-01 22:29N 40°39' W 074°09'3 5.5
2017-Dec-01 22:00N 40°37' W 074°12'4 7.7
2017-Dec-01 21:28N 40°33' W 074°14'1 0.8
2017-Dec-01 20:34N 40°33' W 074°15'1 3.9
2017-Dec-01 20:21N 40°32' W 074°15'1 0.9
2017-Dec-01 19:45N 40°33' W 074°15'1 4.8
2017-Dec-01 19:30N 40°33' W 074°14'3 6.0
2017-Dec-01 18:58N 40°37' W 074°12'3 6.6
2017-Dec-01 18:30N 40°39' W 074°10'4 8.5
2017-Dec-01 18:00N 40°40' W 074°04'1 1.1
2017-Dec-01 17:30N 40°40' W 074°04'0 0.0
2017-Dec-01 17:00N 40°40' W 074°04'0 0.0
2017-Dec-01 16:30N 40°40' W 074°04'0 0.0
2017-Dec-01 16:00N 40°40' W 074°04'0 0.0
2017-Dec-01 15:30N 40°40' W 074°04'0 0.0
2017-Dec-01 15:00N 40°40' W 074°04'0 0.0
2017-Dec-01 14:30N 40°40' W 074°04'0 0.0
2017-Dec-01 14:00N 40°40' W 074°04'0 0.0
2017-Dec-01 13:30N 40°40' W 074°04'0 0.0
2017-Dec-01 13:00N 40°40' W 074°04'0 0.0
2017-Dec-01 12:30N 40°40' W 074°04'0 0.0
2017-Dec-01 12:00N 40°40' W 074°04'0 0.0
2017-Dec-01 11:30N 40°40' W 074°04'0 0.0
2017-Dec-01 11:00N 40°40' W 074°04'0 0.0
2017-Dec-01 10:30N 40°40' W 074°04'0 0.0
2017-Dec-01 10:00N 40°40' W 074°04'0 0.0
2017-Dec-01 09:30N 40°40' W 074°04'0 0.0
2017-Dec-01 09:00N 40°40' W 074°04'0 0.0
2017-Dec-01 08:30N 40°40' W 074°04'0 0.0
2017-Dec-01 08:00N 40°40' W 074°04'0 0.0
2017-Dec-01 07:30N 40°40' W 074°04'0 0.0
2017-Dec-01 07:00N 40°40' W 074°04'0 0.0
2017-Dec-01 06:30N 40°40' W 074°04'0 0.0
2017-Dec-01 06:00N 40°40' W 074°04'0 0.0
2017-Dec-01 05:30N 40°40' W 074°04'0 0.0
2017-Dec-01 05:00N 40°40' W 074°04'0 0.0
2017-Dec-01 04:30N 40°40' W 074°04'0 0.0
2017-Dec-01 04:00N 40°40' W 074°04'0 0.1
2017-Dec-01 03:30N 40°40' W 074°04'3 6.3
2017-Dec-01 03:00N 40°42' W 074°02'510.2
2017-Dec-01 02:30N 40°47' W 073°59'5 9.6
2017-Dec-01 02:00N 40°52' W 073°57'5 8.4
2017-Dec-01 01:26N 40°56' W 073°55'  

Dump ship's entire track history